• Join FlightAware (Why Join?)
  • Login
  • US Flag 
10:51AM EDT


 

Airport Tracker/Info


-or-


 

Live Flight TrackerFlight Track Log ✈ UAL4336 ✈ 16-Apr-2013 ✈ KIAH - KBTR

Flight Track Log - Related Links

Times and Time Zones

All times are in EDT time to prevent confusion due to time zone crossing. See the UAL4336 flight status page for this flight to view local times or setup timezone preferences in your user account.

Time Position Orientation Groundspeed Altitude Reporting Facility
EDT Latitude Longitude Course Direction KTS MPH feet Rate Location/Type
09:53AM 29.9517 -95.3039 113° Southeast 192 221 2,700  Level Houston Center
09:54AM 29.9353 -95.2422 107° East 232 267 4,000 2,040 Climbing Houston Center
09:55AM 29.9834 -94.9882 90° East  Level FlightAware Approximate
09:55AM 29.9114 -95.1617 109° East 261 300 6,800  Level Houston Center
09:56AM 29.9834 -94.8732 90° East  Level FlightAware Approximate
09:56AM 29.8842 -95.0789 111° Southeast 273 314 9,100  Level Houston Center
09:57AM 29.9834 -94.7581 90° East  Level FlightAware Approximate
09:57AM 29.8786 -94.9819 94° East 317 365 10,700  Level Houston Center
09:58AM 29.9022 -94.8450 79° East 360 414 12,200 1,500 Climbing Houston Center
09:59AM 29.9222 -94.7283 79° East 370 426 13,800 1,500 Climbing Houston Center
10:00AM 29.9433 -94.6092 78° East 377 434 15,300 1,320 Climbing Houston Center
10:01AM 29.9636 -94.4886 79° East 382 440 16,600 1,020 Climbing Houston Center
10:02AM 29.9858 -94.3639 78° East 396 456 17,500 900 Climbing Houston Center
10:03AM 30.0053 -94.2331 80° East 412 474 18,500 1,140 Climbing Houston Center
10:04AM 30.0206 -94.0989 82° East 421 484 19,900 1,440 Climbing Houston Center
10:05AM 30.0414 -93.9364 82° East 427 491 21,500 1,380 Climbing Houston Center
10:06AM 30.0581 -93.7986 82° East 435 501 22,800 720 Climbing Houston Center
10:07AM 30.0758 -93.6569 82° East 446 513 23,000 60 Climbing Houston Center
10:08AM 30.0947 -93.4922 82° East 472 543 23,000  Level Houston Center
10:09AM 30.1122 -93.3378 82° East 485 558 23,000  Level Houston Center
10:10AM 30.1317 -93.1839 82° East 487 560 23,000  Level Houston Center
10:11AM 30.1544 -93.0314 80° East 485 558 23,000  Level Houston Center
10:12AM 30.1850 -92.8792 77° East 489 563 23,000  Level Houston Center
10:13AM 30.2203 -92.6986 77° East 483 556 23,000  Level Houston Center
10:14AM 30.2497 -92.5486 77° East 482 555 23,000 -300 Level Houston Center
10:15AM 30.2783 -92.3967 78° East 484 557 22,400 -1,140 Descending Houston Center
10:16AM 30.3067 -92.2492 77° East 478 550 20,700 -2,280 Descending Houston Center
10:17AM 30.3342 -92.1075 77° East 462 532 17,800 -2,820 Descending Houston Center
10:18AM 30.3642 -91.9508 77° East 419 482 14,900 -2,400 Descending Houston Center
10:19AM 30.3856 -91.8311 78° East 390 449 12,900 -1,800 Descending Houston Center
10:20AM 30.4264 -91.7261 66° East 368 423 11,200 -1,500 Descending Houston Center
10:21AM 30.4789 -91.6497 51° Northeast 323 372 9,900 -1,500 Descending Houston Center
10:23AM 30.5281 -91.5772 52° Northeast 299 344 8,100 -1,980 Descending Houston Center
10:24AM 30.5928 -91.4956 47° Northeast 289 333 5,900 -2,040 Descending Houston Center
10:25AM 30.6528 -91.4417 38° Northeast 279 321 3,900 -1,560 Descending Houston Center
10:26AM 30.7103 -91.3906 37° Northeast 273 314 2,700 -1,200 Descending Houston Center
10:28AM 30.5895 -91.2265 131° Southeast  Level Estimated